TimeCST,TemperatureF,Dew PointF,Humidity,Sea Level PressureIn,VisibilityMPH,Wind Direction,Wind SpeedMPH,Gust SpeedMPH,PrecipitationIn,Events,Conditions,WindDirDegrees,DateUTC
12:53 AM,35.1,25.0,67,30.53,10.0,NE,3.5,-,N/A,,Clear,40,2013-11-24 06:53:00
1:53 AM,34.0,26.1,73,30.53,10.0,ENE,3.5,-,N/A,,Clear,60,2013-11-24 07:53:00
2:53 AM,33.1,24.1,70,30.56,10.0,East,4.6,-,N/A,,Clear,80,2013-11-24 08:53:00
3:53 AM,32.0,19.0,59,30.55,10.0,ENE,6.9,-,N/A,,Clear,60,2013-11-24 09:53:00
4:53 AM,30.0,19.9,66,30.58,10.0,NE,3.5,-,N/A,,Clear,50,2013-11-24 10:53:00
5:53 AM,28.9,21.9,75,30.58,10.0,ENE,3.5,-,N/A,,Clear,70,2013-11-24 11:53:00
6:53 AM,28.9,19.9,69,30.60,10.0,NE,4.6,-,N/A,,Clear,50,2013-11-24 12:53:00
7:53 AM,30.9,17.1,57,30.63,10.0,NNE,5.8,-,N/A,,Clear,30,2013-11-24 13:53:00
8:53 AM,33.1,16.0,50,30.64,10.0,East,5.8,-,N/A,,Clear,80,2013-11-24 14:53:00
9:53 AM,34.0,14.0,44,30.61,10.0,ENE,9.2,-,N/A,,Clear,70,2013-11-24 15:53:00
10:53 AM,36.0,14.0,41,30.57,10.0,ENE,13.8,-,N/A,,Clear,70,2013-11-24 16:53:00
11:53 AM,36.0,14.0,41,30.53,10.0,ENE,9.2,-,N/A,,Clear,60,2013-11-24 17:53:00
12:53 PM,36.0,15.1,43,30.51,10.0,East,9.2,-,N/A,,Clear,80,2013-11-24 18:53:00
1:53 PM,37.0,17.1,44,30.49,10.0,East,9.2,-,N/A,,Clear,80,2013-11-24 19:53:00
2:53 PM,37.0,16.0,42,30.49,10.0,NE,5.8,-,N/A,,Scattered Clouds,40,2013-11-24 20:53:00
3:53 PM,36.0,16.0,44,30.47,10.0,East,10.4,-,N/A,,Overcast,80,2013-11-24 21:53:00
4:53 PM,35.1,19.9,54,30.45,8.0,East,5.8,-,0.00,Rain,Light Rain,80,2013-11-24 22:53:00
5:53 PM,35.1,23.0,61,30.46,10.0,Calm,Calm,-,0.00,,Overcast,0,2013-11-24 23:53:00
6:53 PM,35.1,24.1,64,30.46,10.0,ENE,4.6,-,N/A,,Overcast,60,2013-11-25 00:53:00
7:53 PM,34.0,21.9,61,30.45,10.0,East,4.6,-,N/A,,Overcast,90,2013-11-25 01:53:00
8:53 PM,34.0,24.1,67,30.43,10.0,East,6.9,-,0.00,,Overcast,80,2013-11-25 02:53:00
9:53 PM,34.0,23.0,64,30.42,10.0,East,8.1,-,N/A,,Overcast,100,2013-11-25 03:53:00
10:53 PM,33.1,21.0,61,30.39,10.0,ESE,10.4,-,N/A,,Overcast,110,2013-11-25 04:53:00
11:53 PM,33.1,21.0,61,30.38,10.0,ESE,8.1,-,N/A,,Overcast,110,2013-11-25 05:53:00